sensor_id;sensor_type;location;lat;lon;timestamp;pressure;altitude;pressure_sealevel;temperature;humidity
30618;BME280;17384;51.214;9.202;2022-12-24T00:02:11;97655.09;;;9.25;78.11
30618;BME280;17384;51.214;9.202;2022-12-24T00:04:36;97644.41;;;9.30;77.49
30618;BME280;17384;51.214;9.202;2022-12-24T00:07:02;97639.69;;;9.25;77.48
30618;BME280;17384;51.214;9.202;2022-12-24T00:09:27;97652.97;;;9.27;77.61
30618;BME280;17384;51.214;9.202;2022-12-24T00:11:53;97654.03;;;9.14;78.10
30618;BME280;17384;51.214;9.202;2022-12-24T00:14:18;97653.66;;;9.10;78.31
30618;BME280;17384;51.214;9.202;2022-12-24T00:16:44;97660.72;;;9.11;78.06
30618;BME280;17384;51.214;9.202;2022-12-24T00:19:09;97668.03;;;9.23;77.50
30618;BME280;17384;51.214;9.202;2022-12-24T00:21:34;97672.84;;;9.09;78.40
30618;BME280;17384;51.214;9.202;2022-12-24T00:24:00;97666.97;;;9.12;77.87
30618;BME280;17384;51.214;9.202;2022-12-24T00:26:28;97674.88;;;9.25;77.46
30618;BME280;17384;51.214;9.202;2022-12-24T00:28:54;97681.78;;;9.09;78.58
30618;BME280;17384;51.214;9.202;2022-12-24T00:31:19;97681.78;;;8.98;79.02
30618;BME280;17384;51.214;9.202;2022-12-24T00:33:45;97684.34;;;8.93;79.34
30618;BME280;17384;51.214;9.202;2022-12-24T00:36:11;97690.69;;;8.87;79.73
30618;BME280;17384;51.214;9.202;2022-12-24T00:38:37;97681.00;;;8.67;80.94
30618;BME280;17384;51.214;9.202;2022-12-24T00:41:05;97689.38;;;8.89;79.38
30618;BME280;17384;51.214;9.202;2022-12-24T00:43:31;97701.47;;;8.75;80.33
30618;BME280;17384;51.214;9.202;2022-12-24T00:45:57;97698.28;;;8.78;80.07
30618;BME280;17384;51.214;9.202;2022-12-24T00:48:23;97717.63;;;8.93;79.42
30618;BME280;17384;51.214;9.202;2022-12-24T00:50:49;97709.09;;;8.78;80.40
30618;BME280;17384;51.214;9.202;2022-12-24T00:53:16;97707.22;;;8.67;81.42
30618;BME280;17384;51.214;9.202;2022-12-24T00:55:42;97720.88;;;8.72;81.20
30618;BME280;17384;51.214;9.202;2022-12-24T00:58:07;97722.69;;;8.60;81.47
30618;BME280;17384;51.214;9.202;2022-12-24T01:00:33;97732.06;;;8.87;79.04
30618;BME280;17384;51.214;9.202;2022-12-24T01:02:58;97723.81;;;8.70;80.43
30618;BME280;17384;51.214;9.202;2022-12-24T01:05:24;97745.19;;;8.72;80.19
30618;BME280;17384;51.214;9.202;2022-12-24T01:07:49;97745.19;;;8.72;79.90
30618;BME280;17384;51.214;9.202;2022-12-24T01:10:17;97754.84;;;8.79;78.85
30618;BME280;17384;51.214;9.202;2022-12-24T01:12:44;97759.88;;;8.76;78.88
30618;BME280;17384;51.214;9.202;2022-12-24T01:15:11;97761.88;;;8.69;79.68
30618;BME280;17384;51.214;9.202;2022-12-24T01:17:37;97770.16;;;8.56;80.46
30618;BME280;17384;51.214;9.202;2022-12-24T01:20:04;97756.50;;;8.51;80.97
30618;BME280;17384;51.214;9.202;2022-12-24T01:22:30;97759.69;;;8.47;81.33
30618;BME280;17384;51.214;9.202;2022-12-24T01:24:55;97776.34;;;8.44;81.40
30618;BME280;17384;51.214;9.202;2022-12-24T01:27:21;97782.44;;;8.40;81.83
30618;BME280;17384;51.214;9.202;2022-12-24T01:29:46;97787.44;;;8.36;82.06
30618;BME280;17384;51.214;9.202;2022-12-24T01:32:12;97790.91;;;8.43;81.71
30618;BME280;17384;51.214;9.202;2022-12-24T01:34:37;97782.91;;;8.30;82.18
30618;BME280;17384;51.214;9.202;2022-12-24T01:37:02;97776.41;;;8.20;82.65
30618;BME280;17384;51.214;9.202;2022-12-24T01:39:28;97788.03;;;8.20;82.66
30618;BME280;17384;51.214;9.202;2022-12-24T01:41:54;97776.47;;;8.31;81.43
30618;BME280;17384;51.214;9.202;2022-12-24T01:45:21;97775.84;;;8.29;80.38
30618;BME280;17384;51.214;9.202;2022-12-24T01:47:43;97790.75;;;8.38;79.48
30618;BME280;17384;51.214;9.202;2022-12-24T01:50:15;97782.50;;;8.33;78.79
30618;BME280;17384;51.214;9.202;2022-12-24T01:52:41;97778.75;;;8.34;78.59
30618;BME280;17384;51.214;9.202;2022-12-24T01:55:12;97784.44;;;8.44;77.22
30618;BME280;17384;51.214;9.202;2022-12-24T01:57:50;97786.94;;;8.46;76.91
30618;BME280;17384;51.214;9.202;2022-12-24T02:00:17;97787.34;;;8.61;75.61
30618;BME280;17384;51.214;9.202;2022-12-24T02:02:45;97800.78;;;8.68;75.88
30618;BME280;17384;51.214;9.202;2022-12-24T02:05:25;97812.34;;;8.75;75.62
30618;BME280;17384;51.214;9.202;2022-12-24T02:07:54;97805.22;;;8.62;76.25
30618;BME280;17384;51.214;9.202;2022-12-24T02:10:21;97831.88;;;8.59;76.51
30618;BME280;17384;51.214;9.202;2022-12-24T02:12:47;97831.97;;;8.70;75.70
30618;BME280;17384;51.214;9.202;2022-12-24T02:15:16;97824.06;;;8.69;76.04
30618;BME280;17384;51.214;9.202;2022-12-24T02:18:06;97828.19;;;8.53;76.68
30618;BME280;17384;51.214;9.202;2022-12-24T02:26:01;97841.34;;;8.49;76.67
30618;BME280;17384;51.214;9.202;2022-12-24T02:29:54;97847.19;;;8.65;75.79
30618;BME280;17384;51.214;9.202;2022-12-24T02:31:52;97845.56;;;8.45;76.89
30618;BME280;17384;51.214;9.202;2022-12-24T02:37:02;97870.94;;;8.44;76.71
30618;BME280;17384;51.214;9.202;2022-12-24T02:39:37;97871.66;;;8.33;77.18
30618;BME280;17384;51.214;9.202;2022-12-24T02:42:05;97868.53;;;8.36;76.75
30618;BME280;17384;51.214;9.202;2022-12-24T02:45:02;97887.44;;;8.36;76.73
30618;BME280;17384;51.214;9.202;2022-12-24T02:47:30;97874.63;;;8.25;77.04
30618;BME280;17384;51.214;9.202;2022-12-24T02:49:56;97882.00;;;8.18;77.41
30618;BME280;17384;51.214;9.202;2022-12-24T02:54:58;97885.97;;;8.15;75.45
30618;BME280;17384;51.214;9.202;2022-12-24T02:57:27;97893.69;;;8.12;75.59
30618;BME280;17384;51.214;9.202;2022-12-24T03:00:08;97893.75;;;8.05;74.96
30618;BME280;17384;51.214;9.202;2022-12-24T03:03:07;97904.38;;;8.00;75.11
30618;BME280;17384;51.214;9.202;2022-12-24T03:13:17;97917.34;;;7.92;75.01
30618;BME280;17384;51.214;9.202;2022-12-24T03:15:45;97915.47;;;7.92;75.07
30618;BME280;17384;51.214;9.202;2022-12-24T03:18:13;97933.66;;;8.03;74.38
30618;BME280;17384;51.214;9.202;2022-12-24T03:20:43;97940.75;;;7.98;74.51
30618;BME280;17384;51.214;9.202;2022-12-24T03:23:09;97961.09;;;8.00;74.20
30618;BME280;17384;51.214;9.202;2022-12-24T03:25:38;97951.56;;;7.98;74.39
30618;BME280;17384;51.214;9.202;2022-12-24T03:28:05;97945.19;;;7.92;74.75
30618;BME280;17384;51.214;9.202;2022-12-24T03:30:32;97949.03;;;8.03;74.32
30618;BME280;17384;51.214;9.202;2022-12-24T03:32:58;97957.41;;;8.20;72.93
30618;BME280;17384;51.214;9.202;2022-12-24T03:35:24;97947.50;;;8.13;73.98
30618;BME280;17384;51.214;9.202;2022-12-24T03:37:50;97976.56;;;8.18;73.88
30618;BME280;17384;51.214;9.202;2022-12-24T03:40:15;97978.22;;;8.19;73.81
30618;BME280;17384;51.214;9.202;2022-12-24T03:42:41;97974.72;;;8.12;74.37
30618;BME280;17384;51.214;9.202;2022-12-24T03:45:07;97974.94;;;8.10;74.39
30618;BME280;17384;51.214;9.202;2022-12-24T03:47:32;97987.81;;;8.15;74.38
30618;BME280;17384;51.214;9.202;2022-12-24T03:49:58;97978.09;;;8.32;73.26
30618;BME280;17384;51.214;9.202;2022-12-24T03:52:23;97982.56;;;8.20;74.00
30618;BME280;17384;51.214;9.202;2022-12-24T03:54:49;97987.06;;;8.26;73.95
30618;BME280;17384;51.214;9.202;2022-12-24T03:57:14;97987.19;;;8.13;74.53
30618;BME280;17384;51.214;9.202;2022-12-24T03:59:40;97975.88;;;8.23;74.35
30618;BME280;17384;51.214;9.202;2022-12-24T04:02:05;97982.56;;;8.20;74.51
30618;BME280;17384;51.214;9.202;2022-12-24T04:04:31;97975.16;;;8.09;74.79
30618;BME280;17384;51.214;9.202;2022-12-24T04:06:58;97991.81;;;8.06;75.16
30618;BME280;17384;51.214;9.202;2022-12-24T04:09:23;97987.22;;;8.06;75.08
30618;BME280;17384;51.214;9.202;2022-12-24T04:11:49;97993.84;;;8.10;74.78
30618;BME280;17384;51.214;9.202;2022-12-24T04:14:14;97985.75;;;8.10;74.66
30618;BME280;17384;51.214;9.202;2022-12-24T04:16:40;98017.28;;;7.92;75.72
30618;BME280;17384;51.214;9.202;2022-12-24T04:19:05;98004.19;;;7.89;75.85
30618;BME280;17384;51.214;9.202;2022-12-24T04:21:31;98003.59;;;7.87;75.56
30618;BME280;17384;51.214;9.202;2022-12-24T04:23:56;98003.44;;;7.75;76.18
30618;BME280;17384;51.214;9.202;2022-12-24T04:26:22;98008.50;;;7.65;76.17
30618;BME280;17384;51.214;9.202;2022-12-24T04:28:47;98016.53;;;7.71;75.02
30618;BME280;17384;51.214;9.202;2022-12-24T04:31:14;98017.97;;;7.74;74.59
30618;BME280;17384;51.214;9.202;2022-12-24T04:33:41;98024.22;;;7.74;74.60
30618;BME280;17384;51.214;9.202;2022-12-24T04:36:07;98010.16;;;7.66;74.67
30618;BME280;17384;51.214;9.202;2022-12-24T04:38:33;98023.91;;;7.58;73.83
30618;BME280;17384;51.214;9.202;2022-12-24T04:41:05;98013.97;;;7.45;74.03
30618;BME280;17384;51.214;9.202;2022-12-24T04:43:31;98021.31;;;7.31;74.83
30618;BME280;17384;51.214;9.202;2022-12-24T04:48:30;98031.06;;;7.32;74.73
30618;BME280;17384;51.214;9.202;2022-12-24T04:50:56;98039.34;;;7.37;74.33
30618;BME280;17384;51.214;9.202;2022-12-24T04:53:21;98031.91;;;7.26;74.89
30618;BME280;17384;51.214;9.202;2022-12-24T04:55:46;98029.59;;;7.36;74.38
30618;BME280;17384;51.214;9.202;2022-12-24T04:58:12;98030.88;;;7.27;74.26
30618;BME280;17384;51.214;9.202;2022-12-24T05:00:39;98026.94;;;7.23;74.90
30618;BME280;17384;51.214;9.202;2022-12-24T05:03:04;98034.22;;;7.23;74.64
30618;BME280;17384;51.214;9.202;2022-12-24T05:05:29;98030.47;;;7.24;74.74
30618;BME280;17384;51.214;9.202;2022-12-24T05:07:55;98026.94;;;7.23;74.72
30618;BME280;17384;51.214;9.202;2022-12-24T05:10:20;98039.63;;;7.16;74.98
30618;BME280;17384;51.214;9.202;2022-12-24T05:12:46;98040.03;;;7.20;75.08
30618;BME280;17384;51.214;9.202;2022-12-24T05:15:11;98033.97;;;7.31;74.27
30618;BME280;17384;51.214;9.202;2022-12-24T05:17:37;98053.06;;;7.29;74.63
30618;BME280;17384;51.214;9.202;2022-12-24T05:20:02;98051.94;;;7.50;73.83
30618;BME280;17384;51.214;9.202;2022-12-24T05:22:28;98048.63;;;7.55;73.40
30618;BME280;17384;51.214;9.202;2022-12-24T05:25:12;98037.50;;;7.38;74.41
30618;BME280;17384;51.214;9.202;2022-12-24T05:27:56;98036.66;;;7.37;74.47
30618;BME280;17384;51.214;9.202;2022-12-24T05:30:21;98053.16;;;7.61;73.63
30618;BME280;17384;51.214;9.202;2022-12-24T05:32:47;98059.53;;;7.73;72.89
30618;BME280;17384;51.214;9.202;2022-12-24T05:35:12;98050.97;;;7.82;72.45
30618;BME280;17384;51.214;9.202;2022-12-24T05:37:38;98068.81;;;7.84;72.45
30618;BME280;17384;51.214;9.202;2022-12-24T05:40:04;98070.09;;;7.74;72.71
30618;BME280;17384;51.214;9.202;2022-12-24T05:42:29;98074.88;;;7.72;73.17
30618;BME280;17384;51.214;9.202;2022-12-24T05:44:55;98075.94;;;7.71;73.67
30618;BME280;17384;51.214;9.202;2022-12-24T05:47:20;98082.97;;;7.79;73.46
30618;BME280;17384;51.214;9.202;2022-12-24T05:49:46;98080.91;;;7.74;73.84
30618;BME280;17384;51.214;9.202;2022-12-24T05:52:11;98075.88;;;7.85;73.80
30618;BME280;17384;51.214;9.202;2022-12-24T05:54:36;98086.91;;;7.83;73.78
30618;BME280;17384;51.214;9.202;2022-12-24T05:57:02;98088.38;;;7.79;74.35
30618;BME280;17384;51.214;9.202;2022-12-24T05:59:27;98093.38;;;7.75;74.58
30618;BME280;17384;51.214;9.202;2022-12-24T06:01:53;98094.19;;;7.76;75.28
30618;BME280;17384;51.214;9.202;2022-12-24T06:04:18;98090.06;;;7.73;75.51
30618;BME280;17384;51.214;9.202;2022-12-24T06:06:43;98107.91;;;7.74;76.21
30618;BME280;17384;51.214;9.202;2022-12-24T06:09:09;98095.03;;;7.70;77.08
30618;BME280;17384;51.214;9.202;2022-12-24T06:11:34;98105.63;;;7.71;78.18
30618;BME280;17384;51.214;9.202;2022-12-24T06:14:00;98096.16;;;7.56;80.01
30618;BME280;17384;51.214;9.202;2022-12-24T06:16:25;98094.38;;;7.36;81.17
30618;BME280;17384;51.214;9.202;2022-12-24T06:18:53;98113.88;;;7.25;82.48
30618;BME280;17384;51.214;9.202;2022-12-24T06:21:18;98108.09;;;7.22;82.78
30618;BME280;17384;51.214;9.202;2022-12-24T06:23:45;98105.19;;;7.17;83.13
30618;BME280;17384;51.214;9.202;2022-12-24T06:26:13;98100.00;;;7.15;83.69
30618;BME280;17384;51.214;9.202;2022-12-24T06:28:39;98107.09;;;7.09;84.02
30618;BME280;17384;51.214;9.202;2022-12-24T06:31:10;98101.69;;;7.09;84.48
30618;BME280;17384;51.214;9.202;2022-12-24T06:33:36;98103.38;;;6.97;84.40
30618;BME280;17384;51.214;9.202;2022-12-24T06:36:05;98093.00;;;7.01;84.76
30618;BME280;17384;51.214;9.202;2022-12-24T06:38:31;98100.66;;;7.10;84.66
30618;BME280;17384;51.214;9.202;2022-12-24T06:40:57;98098.59;;;7.06;84.60
30618;BME280;17384;51.214;9.202;2022-12-24T06:43:23;98096.09;;;7.04;84.91
30618;BME280;17384;51.214;9.202;2022-12-24T06:45:48;98096.09;;;7.04;84.95
30618;BME280;17384;51.214;9.202;2022-12-24T06:48:14;98104.41;;;6.96;85.32
30618;BME280;17384;51.214;9.202;2022-12-24T06:50:40;98108.56;;;6.86;85.93
30618;BME280;17384;51.214;9.202;2022-12-24T06:53:06;98112.72;;;6.82;86.28
30618;BME280;17384;51.214;9.202;2022-12-24T06:55:32;98106.91;;;6.78;86.54
30618;BME280;17384;51.214;9.202;2022-12-24T06:57:57;98112.09;;;6.73;87.00
30618;BME280;17384;51.214;9.202;2022-12-24T07:00:22;98103.19;;;6.72;87.19
30618;BME280;17384;51.214;9.202;2022-12-24T07:02:48;98116.47;;;6.74;87.19
30618;BME280;17384;51.214;9.202;2022-12-24T07:05:13;98116.25;;;6.75;87.20
30618;BME280;17384;51.214;9.202;2022-12-24T07:07:41;98119.97;;;6.81;87.33
30618;BME280;17384;51.214;9.202;2022-12-24T07:10:09;98129.09;;;6.87;87.37
30618;BME280;17384;51.214;9.202;2022-12-24T07:12:35;98135.09;;;6.89;87.31
30618;BME280;17384;51.214;9.202;2022-12-24T07:15:01;98137.59;;;7.03;87.89
30618;BME280;17384;51.214;9.202;2022-12-24T07:17:27;98142.16;;;7.03;87.33
30618;BME280;17384;51.214;9.202;2022-12-24T07:19:52;98136.72;;;7.16;87.22
30618;BME280;17384;51.214;9.202;2022-12-24T07:22:17;98145.25;;;7.06;87.61
30618;BME280;17384;51.214;9.202;2022-12-24T07:24:43;98129.72;;;7.02;88.02
30618;BME280;17384;51.214;9.202;2022-12-24T07:27:08;98148.38;;;7.03;87.91
30618;BME280;17384;51.214;9.202;2022-12-24T07:29:34;98140.69;;;7.00;88.09
30618;BME280;17384;51.214;9.202;2022-12-24T07:31:59;98158.53;;;7.01;87.46
30618;BME280;17384;51.214;9.202;2022-12-24T07:34:25;98162.28;;;6.94;87.74
30618;BME280;17384;51.214;9.202;2022-12-24T07:36:50;98168.69;;;6.86;87.45
30618;BME280;17384;51.214;9.202;2022-12-24T07:39:16;98161.44;;;6.93;88.01
30618;BME280;17384;51.214;9.202;2022-12-24T07:41:41;98174.50;;;6.96;87.61
30618;BME280;17384;51.214;9.202;2022-12-24T07:44:11;98173.47;;;6.97;87.59
30618;BME280;17384;51.214;9.202;2022-12-24T07:46:37;98159.97;;;6.84;87.77
30618;BME280;17384;51.214;9.202;2022-12-24T07:49:02;98166.66;;;6.82;88.40
30618;BME280;17384;51.214;9.202;2022-12-24T07:51:28;98169.34;;;6.75;88.36
30618;BME280;17384;51.214;9.202;2022-12-24T07:53:53;98184.47;;;6.76;88.07
30618;BME280;17384;51.214;9.202;2022-12-24T07:56:19;98172.00;;;6.88;87.42
30618;BME280;17384;51.214;9.202;2022-12-24T07:58:44;98175.75;;;6.67;87.84
30618;BME280;17384;51.214;9.202;2022-12-24T08:01:10;98185.25;;;6.57;88.15
30618;BME280;17384;51.214;9.202;2022-12-24T08:03:35;98187.75;;;6.58;88.41
30618;BME280;17384;51.214;9.202;2022-12-24T08:06:01;98183.19;;;6.59;88.53
30618;BME280;17384;51.214;9.202;2022-12-24T08:08:27;98194.38;;;6.49;88.38
30618;BME280;17384;51.214;9.202;2022-12-24T08:10:52;98196.69;;;6.52;88.86
30618;BME280;17384;51.214;9.202;2022-12-24T08:13:18;98201.44;;;6.57;88.66
30618;BME280;17384;51.214;9.202;2022-12-24T08:15:44;98191.72;;;6.56;88.49
30618;BME280;17384;51.214;9.202;2022-12-24T08:18:10;98207.25;;;6.54;88.66
30618;BME280;17384;51.214;9.202;2022-12-24T08:20:38;98211.41;;;6.56;88.75
30618;BME280;17384;51.214;9.202;2022-12-24T08:23:04;98192.75;;;6.55;88.80
30618;BME280;17384;51.214;9.202;2022-12-24T08:25:30;98201.03;;;6.53;88.88
30618;BME280;17384;51.214;9.202;2022-12-24T08:27:56;98198.31;;;6.60;89.16
30618;BME280;17384;51.214;9.202;2022-12-24T08:30:22;98206.06;;;6.83;89.11
30618;BME280;17384;51.214;9.202;2022-12-24T08:32:47;98206.25;;;6.94;88.77
30618;BME280;17384;51.214;9.202;2022-12-24T08:35:13;98213.72;;;7.05;88.28
30618;BME280;17384;51.214;9.202;2022-12-24T08:37:38;98213.09;;;7.10;88.33
30618;BME280;17384;51.214;9.202;2022-12-24T08:40:04;98211.22;;;7.30;87.68
30618;BME280;17384;51.214;9.202;2022-12-24T08:42:30;98241.28;;;7.54;85.74
30618;BME280;17384;51.214;9.202;2022-12-24T08:44:55;98237.13;;;7.51;85.59
30618;BME280;17384;51.214;9.202;2022-12-24T08:47:21;98239.63;;;7.39;85.74
30618;BME280;17384;51.214;9.202;2022-12-24T08:49:46;98246.91;;;7.39;86.10
30618;BME280;17384;51.214;9.202;2022-12-24T08:52:12;98255.84;;;7.33;86.24
30618;BME280;17384;51.214;9.202;2022-12-24T08:54:37;98250.44;;;7.33;86.57
30618;BME280;17384;51.214;9.202;2022-12-24T08:57:02;98271.00;;;7.34;86.67
30618;BME280;17384;51.214;9.202;2022-12-24T08:59:28;98274.94;;;7.38;86.62
30618;BME280;17384;51.214;9.202;2022-12-24T09:01:53;98266.41;;;7.41;86.39
30618;BME280;17384;51.214;9.202;2022-12-24T09:04:19;98264.75;;;7.53;85.86
30618;BME280;17384;51.214;9.202;2022-12-24T09:06:44;98278.25;;;7.53;85.80
30618;BME280;17384;51.214;9.202;2022-12-24T09:09:09;98286.13;;;7.61;85.59
30618;BME280;17384;51.214;9.202;2022-12-24T09:11:35;98289.63;;;7.68;85.01
30618;BME280;17384;51.214;9.202;2022-12-24T09:14:01;98303.13;;;7.75;84.40
30618;BME280;17384;51.214;9.202;2022-12-24T09:16:26;98296.06;;;7.87;84.22
30618;BME280;17384;51.214;9.202;2022-12-24T09:18:52;98301.25;;;7.82;84.31
30618;BME280;17384;51.214;9.202;2022-12-24T09:21:17;98297.31;;;7.85;84.57
30618;BME280;17384;51.214;9.202;2022-12-24T09:23:44;98294.19;;;7.81;84.30
30618;BME280;17384;51.214;9.202;2022-12-24T09:26:20;98295.03;;;7.88;83.85
30618;BME280;17384;51.214;9.202;2022-12-24T09:28:46;98313.47;;;7.98;83.63
30618;BME280;17384;51.214;9.202;2022-12-24T09:31:12;98322.00;;;8.01;83.66
30618;BME280;17384;51.214;9.202;2022-12-24T09:33:40;98307.44;;;8.02;83.63
30618;BME280;17384;51.214;9.202;2022-12-24T09:36:06;98318.47;;;8.01;83.88
30618;BME280;17384;51.214;9.202;2022-12-24T09:38:32;98306.19;;;8.05;83.73
30618;BME280;17384;51.214;9.202;2022-12-24T09:40:59;98313.69;;;8.03;83.92
30618;BME280;17384;51.214;9.202;2022-12-24T09:43:35;98330.50;;;8.18;83.43
30618;BME280;17384;51.214;9.202;2022-12-24T09:46:31;98326.72;;;8.26;82.99
30618;BME280;17384;51.214;9.202;2022-12-24T09:49:02;98331.28;;;8.25;82.76
30618;BME280;17384;51.214;9.202;2022-12-24T09:51:34;98326.13;;;8.17;83.36
30618;BME280;17384;51.214;9.202;2022-12-24T09:56:45;98342.09;;;8.25;82.89
30618;BME280;17384;51.214;9.202;2022-12-24T09:59:17;98345.66;;;8.19;83.00
30618;BME280;17384;51.214;9.202;2022-12-24T10:01:45;98349.38;;;8.44;82.14
30618;BME280;17384;51.214;9.202;2022-12-24T10:04:14;98349.94;;;8.53;82.21
30618;BME280;17384;51.214;9.202;2022-12-24T10:09:57;98364.06;;;8.62;81.82
30618;BME280;17384;51.214;9.202;2022-12-24T10:20:47;98372.72;;;8.77;80.31
30618;BME280;17384;51.214;9.202;2022-12-24T10:23:38;98374.44;;;8.71;79.15
30618;BME280;17384;51.214;9.202;2022-12-24T10:28:56;98374.16;;;8.86;79.50
30618;BME280;17384;51.214;9.202;2022-12-24T10:31:31;98375.38;;;8.90;79.17
30618;BME280;17384;51.214;9.202;2022-12-24T10:34:03;98373.72;;;8.89;78.37
30618;BME280;17384;51.214;9.202;2022-12-24T10:36:31;98379.94;;;8.96;78.20
30618;BME280;17384;51.214;9.202;2022-12-24T10:38:57;98387.63;;;8.99;78.48
30618;BME280;17384;51.214;9.202;2022-12-24T10:41:24;98390.16;;;8.94;78.73
30618;BME280;17384;51.214;9.202;2022-12-24T10:43:51;98376.03;;;8.79;78.96
30618;BME280;17384;51.214;9.202;2022-12-24T10:46:19;98386.81;;;8.99;77.05
30618;BME280;17384;51.214;9.202;2022-12-24T10:48:59;98388.06;;;8.96;77.44
30618;BME280;17384;51.214;9.202;2022-12-24T10:51:30;98376.31;;;9.09;76.83
30618;BME280;17384;51.214;9.202;2022-12-24T10:54:04;98384.88;;;9.06;76.61
30618;BME280;17384;51.214;9.202;2022-12-24T10:56:31;98378.13;;;9.22;75.19
30618;BME280;17384;51.214;9.202;2022-12-24T10:58:56;98381.66;;;9.29;75.25
30618;BME280;17384;51.214;9.202;2022-12-24T11:01:42;98387.22;;;9.34;75.13
30618;BME280;17384;51.214;9.202;2022-12-24T11:04:19;98385.56;;;9.33;74.70
30618;BME280;17384;51.214;9.202;2022-12-24T11:09:31;98399.38;;;9.25;74.77
30618;BME280;17384;51.214;9.202;2022-12-24T11:11:58;98368.69;;;9.31;74.44
30618;BME280;17384;51.214;9.202;2022-12-24T11:14:26;98378.44;;;9.38;74.01
30618;BME280;17384;51.214;9.202;2022-12-24T11:16:54;98389.06;;;9.40;74.55
30618;BME280;17384;51.214;9.202;2022-12-24T11:19:37;98392.34;;;9.48;74.74
30618;BME280;17384;51.214;9.202;2022-12-24T11:22:04;98391.91;;;9.52;73.95
30618;BME280;17384;51.214;9.202;2022-12-24T11:24:36;98386.28;;;9.53;73.10
30618;BME280;17384;51.214;9.202;2022-12-24T11:27:31;98382.56;;;9.47;73.57
30618;BME280;17384;51.214;9.202;2022-12-24T11:30:28;98385.91;;;9.43;74.70
30618;BME280;17384;51.214;9.202;2022-12-24T11:35:27;98391.72;;;9.08;76.60
30618;BME280;17384;51.214;9.202;2022-12-24T11:40:31;98391.81;;;8.95;76.59
30618;BME280;17384;51.214;9.202;2022-12-24T11:43:02;98406.81;;;8.91;78.31
30618;BME280;17384;51.214;9.202;2022-12-24T11:45:30;98396.81;;;8.92;79.39
30618;BME280;17384;51.214;9.202;2022-12-24T11:47:57;98401.00;;;8.88;79.31
30618;BME280;17384;51.214;9.202;2022-12-24T11:50:34;98396.59;;;8.93;79.49
30618;BME280;17384;51.214;9.202;2022-12-24T11:53:08;98399.09;;;8.95;79.52
30618;BME280;17384;51.214;9.202;2022-12-24T11:55:52;98400.97;;;8.94;79.64
30618;BME280;17384;51.214;9.202;2022-12-24T12:04:09;98397.13;;;9.08;79.28
30618;BME280;17384;51.214;9.202;2022-12-24T12:07:00;98384.56;;;9.27;78.45
30618;BME280;17384;51.214;9.202;2022-12-24T12:09:36;98386.16;;;9.35;78.93
30618;BME280;17384;51.214;9.202;2022-12-24T12:12:29;98391.84;;;9.58;78.56
30618;BME280;17384;51.214;9.202;2022-12-24T12:15:00;98405.84;;;9.55;78.61
30618;BME280;17384;51.214;9.202;2022-12-24T12:20:02;98393.88;;;9.63;78.02
30618;BME280;17384;51.214;9.202;2022-12-24T12:25:16;98412.66;;;9.58;78.39
30618;BME280;17384;51.214;9.202;2022-12-24T12:27:45;98407.09;;;10.09;77.50
30618;BME280;17384;51.214;9.202;2022-12-24T12:30:16;98410.06;;;10.01;76.75
30618;BME280;17384;51.214;9.202;2022-12-24T12:33:03;98405.34;;;9.90;76.27
30618;BME280;17384;51.214;9.202;2022-12-24T12:35:38;98424.88;;;9.98;76.40
30618;BME280;17384;51.214;9.202;2022-12-24T12:38:08;98428.19;;;10.00;76.55
30618;BME280;17384;51.214;9.202;2022-12-24T12:46:37;98426.06;;;9.53;80.45
30618;BME280;17384;51.214;9.202;2022-12-24T12:52:02;98422.94;;;9.80;79.79
30618;BME280;17384;51.214;9.202;2022-12-24T12:57:10;98410.97;;;10.63;78.14
30618;BME280;17384;51.214;9.202;2022-12-24T12:59:51;98419.53;;;11.74;74.88
30618;BME280;17384;51.214;9.202;2022-12-24T13:10:34;98448.53;;;13.32;65.97
30618;BME280;17384;51.214;9.202;2022-12-24T13:21:29;98465.06;;;11.31;72.92
30618;BME280;17384;51.214;9.202;2022-12-24T13:24:21;98458.13;;;10.98;73.86
30618;BME280;17384;51.214;9.202;2022-12-24T13:27:13;98468.31;;;10.84;74.15
30618;BME280;17384;51.214;9.202;2022-12-24T13:29:41;98471.97;;;10.54;74.09
30618;BME280;17384;51.214;9.202;2022-12-24T13:34:50;98475.41;;;9.86;75.04
30618;BME280;17384;51.214;9.202;2022-12-24T13:37:22;98480.44;;;9.51;75.80
30618;BME280;17384;51.214;9.202;2022-12-24T13:47:53;98480.16;;;9.21;76.94
30618;BME280;17384;51.214;9.202;2022-12-24T13:50:28;98489.53;;;9.19;76.83
30618;BME280;17384;51.214;9.202;2022-12-24T13:52:59;98491.63;;;9.10;77.22
30618;BME280;17384;51.214;9.202;2022-12-24T13:55:25;98494.19;;;8.98;77.72
30618;BME280;17384;51.214;9.202;2022-12-24T13:57:57;98501.44;;;9.04;77.27
30618;BME280;17384;51.214;9.202;2022-12-24T14:05:38;98494.53;;;9.22;77.44
30618;BME280;17384;51.214;9.202;2022-12-24T14:08:24;98483.94;;;9.13;77.90
30618;BME280;17384;51.214;9.202;2022-12-24T14:11:08;98489.56;;;9.05;78.03
30618;BME280;17384;51.214;9.202;2022-12-24T14:18:38;98497.53;;;8.87;79.42
30618;BME280;17384;51.214;9.202;2022-12-24T14:21:05;98486.66;;;9.07;78.58
30618;BME280;17384;51.214;9.202;2022-12-24T14:26:21;98492.44;;;9.62;77.36
30618;BME280;17384;51.214;9.202;2022-12-24T14:28:55;98506.44;;;9.90;75.64
30618;BME280;17384;51.214;9.202;2022-12-24T14:31:21;98512.28;;;10.18;75.37
30618;BME280;17384;51.214;9.202;2022-12-24T14:33:47;98518.56;;;10.19;73.66
30618;BME280;17384;51.214;9.202;2022-12-24T14:36:16;98504.41;;;10.42;72.86
30618;BME280;17384;51.214;9.202;2022-12-24T14:38:44;98506.84;;;10.25;72.90
30618;BME280;17384;51.214;9.202;2022-12-24T14:44:19;98508.28;;;9.58;74.35
30618;BME280;17384;51.214;9.202;2022-12-24T14:47:00;98509.00;;;9.40;75.35
30618;BME280;17384;51.214;9.202;2022-12-24T14:52:26;98527.44;;;9.12;75.82
30618;BME280;17384;51.214;9.202;2022-12-24T14:54:56;98522.84;;;9.12;76.45
30618;BME280;17384;51.214;9.202;2022-12-24T14:57:23;98528.31;;;8.99;76.57
30618;BME280;17384;51.214;9.202;2022-12-24T14:59:54;98531.88;;;8.87;77.34
30618;BME280;17384;51.214;9.202;2022-12-24T15:05:11;98544.56;;;8.86;76.84
30618;BME280;17384;51.214;9.202;2022-12-24T15:07:41;98541.91;;;8.73;76.43
30618;BME280;17384;51.214;9.202;2022-12-24T15:10:22;98549.19;;;8.66;76.95
30618;BME280;17384;51.214;9.202;2022-12-24T15:12:50;98550.00;;;8.53;77.65
30618;BME280;17384;51.214;9.202;2022-12-24T15:15:16;98563.72;;;8.52;77.83
30618;BME280;17384;51.214;9.202;2022-12-24T15:17:44;98571.59;;;8.27;77.67